ADDS METAR Data INFO
IDs: Format: Raw Decoded Include TAF

Data at: 2310 UTC 17 Nov 2017

ETSI 172220Z AUTO 25001KT //// // ////// 03/01 Q1024 ///